sensor_id;sensor_type;location;lat;lon;timestamp;pressure;altitude;pressure_sealevel;temperature;humidity
64628;BME280;59036;50.960;0.314;2022-08-03T00:00:59;99842.02;;;16.44;76.45
64628;BME280;59036;50.960;0.314;2022-08-03T00:03:26;99838.70;;;16.63;76.90
64628;BME280;59036;50.960;0.314;2022-08-03T00:05:53;99838.59;;;16.23;77.22
64628;BME280;59036;50.960;0.314;2022-08-03T00:08:20;99837.98;;;16.44;78.02
64628;BME280;59036;50.960;0.314;2022-08-03T00:10:47;99834.78;;;16.76;77.55
64628;BME280;59036;50.960;0.314;2022-08-03T00:13:14;99832.31;;;16.38;78.17
64628;BME280;59036;50.960;0.314;2022-08-03T00:15:42;99825.91;;;16.18;78.77
64628;BME280;59036;50.960;0.314;2022-08-03T00:18:10;99823.40;;;16.31;79.35
64628;BME280;59036;50.960;0.314;2022-08-03T00:20:37;99827.41;;;16.12;80.63
64628;BME280;59036;50.960;0.314;2022-08-03T00:23:04;99822.75;;;15.70;80.50
64628;BME280;59036;50.960;0.314;2022-08-03T00:25:32;99821.14;;;16.09;80.90
64628;BME280;59036;50.960;0.314;2022-08-03T00:27:58;99817.05;;;16.10;80.40
64628;BME280;59036;50.960;0.314;2022-08-03T00:30:26;99819.27;;;16.04;81.23
64628;BME280;59036;50.960;0.314;2022-08-03T00:32:53;99819.59;;;16.05;81.09
64628;BME280;59036;50.960;0.314;2022-08-03T00:35:20;99818.06;;;15.91;80.99
64628;BME280;59036;50.960;0.314;2022-08-03T00:37:47;99812.46;;;16.16;80.26
64628;BME280;59036;50.960;0.314;2022-08-03T00:40:15;99812.19;;;16.11;80.84
64628;BME280;59036;50.960;0.314;2022-08-03T00:42:49;99809.02;;;15.98;80.67
64628;BME280;59036;50.960;0.314;2022-08-03T00:45:17;99807.60;;;16.25;80.50
64628;BME280;59036;50.960;0.314;2022-08-03T00:47:45;99803.31;;;16.01;80.35
64628;BME280;59036;50.960;0.314;2022-08-03T00:50:12;99804.89;;;16.13;80.65
64628;BME280;59036;50.960;0.314;2022-08-03T00:52:40;99805.37;;;16.40;78.26
64628;BME280;59036;50.960;0.314;2022-08-03T00:55:09;99804.02;;;15.74;80.90
64628;BME280;59036;50.960;0.314;2022-08-03T00:57:37;99801.46;;;15.03;82.75
64628;BME280;59036;50.960;0.314;2022-08-03T01:00:06;99806.63;;;14.85;82.88
64628;BME280;59036;50.960;0.314;2022-08-03T01:02:34;99792.13;;;15.99;80.26
64628;BME280;59036;50.960;0.314;2022-08-03T01:05:02;99799.19;;;15.89;80.72
64628;BME280;59036;50.960;0.314;2022-08-03T01:07:41;99797.62;;;15.94;80.94
64628;BME280;59036;50.960;0.314;2022-08-03T01:10:18;99800.45;;;15.69;81.57
64628;BME280;59036;50.960;0.314;2022-08-03T01:12:56;99794.71;;;15.74;81.60
64628;BME280;59036;50.960;0.314;2022-08-03T01:15:42;99796.07;;;15.55;82.36
64628;BME280;59036;50.960;0.314;2022-08-03T01:18:17;99793.48;;;15.59;80.63
64628;BME280;59036;50.960;0.314;2022-08-03T01:20:48;99801.23;;;15.44;82.53
64628;BME280;59036;50.960;0.314;2022-08-03T01:23:33;99802.67;;;15.40;83.01
64628;BME280;59036;50.960;0.314;2022-08-03T01:26:12;99801.24;;;14.87;84.39
64628;BME280;59036;50.960;0.314;2022-08-03T01:28:58;99797.74;;;15.86;81.27
64628;BME280;59036;50.960;0.314;2022-08-03T01:31:33;99799.86;;;15.78;80.13
64628;BME280;59036;50.960;0.314;2022-08-03T01:34:05;99806.42;;;15.58;81.76
64628;BME280;59036;50.960;0.314;2022-08-03T01:36:38;99803.15;;;15.53;81.46
64628;BME280;59036;50.960;0.314;2022-08-03T01:39:06;99809.37;;;15.79;81.53
64628;BME280;59036;50.960;0.314;2022-08-03T01:41:40;99805.00;;;15.66;80.87
64628;BME280;59036;50.960;0.314;2022-08-03T01:44:11;99807.74;;;15.24;82.27
64628;BME280;59036;50.960;0.314;2022-08-03T01:46:40;99802.12;;;15.46;82.20
64628;BME280;59036;50.960;0.314;2022-08-03T01:49:10;99798.10;;;15.59;81.32
64628;BME280;59036;50.960;0.314;2022-08-03T01:51:41;99801.56;;;15.42;80.93
64628;BME280;59036;50.960;0.314;2022-08-03T01:54:10;99799.19;;;15.45;82.17
64628;BME280;59036;50.960;0.314;2022-08-03T01:56:39;99794.84;;;16.02;80.40
64628;BME280;59036;50.960;0.314;2022-08-03T01:59:07;99792.22;;;15.66;79.76
64628;BME280;59036;50.960;0.314;2022-08-03T02:01:36;99791.58;;;15.30;80.89
64628;BME280;59036;50.960;0.314;2022-08-03T02:04:05;99788.92;;;16.04;80.27
64628;BME280;59036;50.960;0.314;2022-08-03T02:06:35;99789.16;;;15.69;79.77
64628;BME280;59036;50.960;0.314;2022-08-03T02:09:05;99787.16;;;16.08;78.76
64628;BME280;59036;50.960;0.314;2022-08-03T02:11:34;99787.04;;;15.48;81.67
64628;BME280;59036;50.960;0.314;2022-08-03T02:14:04;99786.69;;;15.27;80.88
64628;BME280;59036;50.960;0.314;2022-08-03T02:16:33;99785.06;;;15.45;80.53
64628;BME280;59036;50.960;0.314;2022-08-03T02:19:03;99786.90;;;15.25;81.52
64628;BME280;59036;50.960;0.314;2022-08-03T02:21:33;99781.54;;;15.04;83.05
64628;BME280;59036;50.960;0.314;2022-08-03T02:24:01;99782.02;;;15.54;81.01
64628;BME280;59036;50.960;0.314;2022-08-03T02:26:30;99781.96;;;15.27;81.08
64628;BME280;59036;50.960;0.314;2022-08-03T02:29:02;99784.82;;;14.76;82.99
64628;BME280;59036;50.960;0.314;2022-08-03T02:31:33;99779.97;;;15.28;82.20
64628;BME280;59036;50.960;0.314;2022-08-03T02:34:07;99775.36;;;15.27;80.68
64628;BME280;59036;50.960;0.314;2022-08-03T02:36:38;99777.58;;;15.38;82.32
64628;BME280;59036;50.960;0.314;2022-08-03T02:39:08;99773.00;;;15.52;80.74
64628;BME280;59036;50.960;0.314;2022-08-03T02:41:44;99769.13;;;15.57;80.80
64628;BME280;59036;50.960;0.314;2022-08-03T02:44:12;99780.39;;;15.03;81.88
64628;BME280;59036;50.960;0.314;2022-08-03T02:46:44;99776.52;;;15.26;81.49
64628;BME280;59036;50.960;0.314;2022-08-03T02:49:14;99779.01;;;15.37;81.51
64628;BME280;59036;50.960;0.314;2022-08-03T02:51:43;99776.43;;;15.75;79.76
64628;BME280;59036;50.960;0.314;2022-08-03T02:54:11;99780.87;;;15.84;78.28
64628;BME280;59036;50.960;0.314;2022-08-03T02:56:42;99777.49;;;15.46;78.29
64628;BME280;59036;50.960;0.314;2022-08-03T02:59:11;99787.42;;;15.34;80.38
64628;BME280;59036;50.960;0.314;2022-08-03T03:01:40;99779.35;;;15.89;78.34
64628;BME280;59036;50.960;0.314;2022-08-03T03:04:09;99779.44;;;15.90;77.85
64628;BME280;59036;50.960;0.314;2022-08-03T03:06:37;99782.55;;;15.77;77.48
64628;BME280;59036;50.960;0.314;2022-08-03T03:09:06;99781.28;;;15.83;77.00
64628;BME280;59036;50.960;0.314;2022-08-03T03:11:35;99781.53;;;15.74;76.90
64628;BME280;59036;50.960;0.314;2022-08-03T03:14:04;99783.48;;;15.17;79.63
64628;BME280;59036;50.960;0.314;2022-08-03T03:16:33;99783.56;;;15.63;78.50
64628;BME280;59036;50.960;0.314;2022-08-03T03:19:02;99774.80;;;14.95;80.27
64628;BME280;59036;50.960;0.314;2022-08-03T03:21:30;99782.86;;;14.68;81.54
64628;BME280;59036;50.960;0.314;2022-08-03T03:23:58;99777.58;;;14.75;80.66
64628;BME280;59036;50.960;0.314;2022-08-03T03:26:26;99778.45;;;14.64;81.45
64628;BME280;59036;50.960;0.314;2022-08-03T03:28:54;99773.32;;;14.99;80.90
64628;BME280;59036;50.960;0.314;2022-08-03T03:31:21;99769.49;;;15.21;79.84
64628;BME280;59036;50.960;0.314;2022-08-03T03:33:48;99764.32;;;15.30;79.01
64628;BME280;59036;50.960;0.314;2022-08-03T03:36:15;99769.87;;;14.92;80.14
64628;BME280;59036;50.960;0.314;2022-08-03T03:38:42;99766.33;;;15.71;77.77
64628;BME280;59036;50.960;0.314;2022-08-03T03:41:09;99770.79;;;15.86;76.50
64628;BME280;59036;50.960;0.314;2022-08-03T03:43:36;99776.53;;;15.87;75.76
64628;BME280;59036;50.960;0.314;2022-08-03T03:46:04;99772.45;;;15.21;78.64
64628;BME280;59036;50.960;0.314;2022-08-03T03:48:31;99771.37;;;15.15;78.04
64628;BME280;59036;50.960;0.314;2022-08-03T03:50:59;99766.49;;;15.44;77.29
64628;BME280;59036;50.960;0.314;2022-08-03T03:53:26;99763.05;;;16.25;75.10
64628;BME280;59036;50.960;0.314;2022-08-03T03:55:53;99767.03;;;15.33;76.68
64628;BME280;59036;50.960;0.314;2022-08-03T03:58:20;99768.57;;;15.66;77.88
64628;BME280;59036;50.960;0.314;2022-08-03T04:00:47;99772.58;;;16.05;75.53
64628;BME280;59036;50.960;0.314;2022-08-03T04:03:14;99773.35;;;16.11;75.35
64628;BME280;59036;50.960;0.314;2022-08-03T04:05:41;99770.59;;;15.84;76.24
64628;BME280;59036;50.960;0.314;2022-08-03T04:08:11;99774.57;;;15.61;76.90
64628;BME280;59036;50.960;0.314;2022-08-03T04:10:41;99769.29;;;15.58;77.11
64628;BME280;59036;50.960;0.314;2022-08-03T04:13:10;99774.35;;;16.22;75.36
64628;BME280;59036;50.960;0.314;2022-08-03T04:15:40;99773.55;;;16.81;73.70
64628;BME280;59036;50.960;0.314;2022-08-03T04:18:11;99776.52;;;16.32;73.53
64628;BME280;59036;50.960;0.314;2022-08-03T04:20:42;99769.85;;;17.01;72.26
64628;BME280;59036;50.960;0.314;2022-08-03T04:23:12;99764.82;;;16.68;72.26
64628;BME280;59036;50.960;0.314;2022-08-03T04:25:41;99762.77;;;16.62;72.27
64628;BME280;59036;50.960;0.314;2022-08-03T04:28:09;99768.09;;;17.26;70.85
64628;BME280;59036;50.960;0.314;2022-08-03T04:30:38;99773.55;;;16.52;73.20
64628;BME280;59036;50.960;0.314;2022-08-03T04:33:06;99772.19;;;17.26;71.50
64628;BME280;59036;50.960;0.314;2022-08-03T04:35:35;99773.52;;;16.92;72.50
64628;BME280;59036;50.960;0.314;2022-08-03T04:38:05;99772.75;;;16.73;72.36
64628;BME280;59036;50.960;0.314;2022-08-03T04:40:34;99774.13;;;16.50;72.98
64628;BME280;59036;50.960;0.314;2022-08-03T04:43:02;99779.66;;;15.88;75.36
64628;BME280;59036;50.960;0.314;2022-08-03T04:45:30;99781.21;;;16.05;74.90
64628;BME280;59036;50.960;0.314;2022-08-03T04:47:59;99782.19;;;15.76;75.07
64628;BME280;59036;50.960;0.314;2022-08-03T04:50:26;99793.12;;;15.28;77.34
64628;BME280;59036;50.960;0.314;2022-08-03T04:52:54;99791.99;;;15.03;77.46
64628;BME280;59036;50.960;0.314;2022-08-03T04:55:26;99795.87;;;14.33;80.26
64628;BME280;59036;50.960;0.314;2022-08-03T04:57:52;99789.57;;;15.62;75.71
64628;BME280;59036;50.960;0.314;2022-08-03T05:00:20;99794.00;;;15.66;76.43
64628;BME280;59036;50.960;0.314;2022-08-03T05:02:47;99789.87;;;15.74;75.36
64628;BME280;59036;50.960;0.314;2022-08-03T05:05:15;99793.34;;;16.04;74.59
64628;BME280;59036;50.960;0.314;2022-08-03T05:07:43;99798.09;;;15.28;77.18
64628;BME280;59036;50.960;0.314;2022-08-03T05:10:11;99799.38;;;16.10;74.03
64628;BME280;59036;50.960;0.314;2022-08-03T05:12:38;99801.77;;;15.75;75.16
64628;BME280;59036;50.960;0.314;2022-08-03T05:15:07;99805.89;;;15.90;74.54
64628;BME280;59036;50.960;0.314;2022-08-03T05:17:34;99805.34;;;15.71;76.76
64628;BME280;59036;50.960;0.314;2022-08-03T05:20:03;99804.95;;;15.83;76.51
64628;BME280;59036;50.960;0.314;2022-08-03T05:22:31;99805.64;;;15.54;75.10
64628;BME280;59036;50.960;0.314;2022-08-03T05:25:00;99812.38;;;15.63;76.69
64628;BME280;59036;50.960;0.314;2022-08-03T05:27:27;99815.16;;;15.65;76.31
64628;BME280;59036;50.960;0.314;2022-08-03T05:29:55;99816.26;;;15.64;75.60
64628;BME280;59036;50.960;0.314;2022-08-03T05:32:22;99817.27;;;16.33;73.62
64628;BME280;59036;50.960;0.314;2022-08-03T05:34:49;99823.17;;;16.18;75.03
64628;BME280;59036;50.960;0.314;2022-08-03T05:37:16;99824.00;;;15.58;75.33
64628;BME280;59036;50.960;0.314;2022-08-03T05:39:44;99823.19;;;15.69;75.49
64628;BME280;59036;50.960;0.314;2022-08-03T05:42:14;99820.47;;;15.57;76.28
64628;BME280;59036;50.960;0.314;2022-08-03T05:44:42;99822.35;;;15.87;74.67
64628;BME280;59036;50.960;0.314;2022-08-03T05:47:10;99822.49;;;15.36;77.17
64628;BME280;59036;50.960;0.314;2022-08-03T05:49:37;99820.49;;;15.10;78.10
64628;BME280;59036;50.960;0.314;2022-08-03T05:52:05;99821.87;;;15.69;76.29
64628;BME280;59036;50.960;0.314;2022-08-03T05:54:31;99825.73;;;15.59;75.39
64628;BME280;59036;50.960;0.314;2022-08-03T05:56:59;99822.41;;;15.80;74.93
64628;BME280;59036;50.960;0.314;2022-08-03T05:59:26;99827.86;;;15.71;75.18
64628;BME280;59036;50.960;0.314;2022-08-03T06:01:53;99824.43;;;16.93;72.00
64628;BME280;59036;50.960;0.314;2022-08-03T06:04:20;99825.74;;;16.61;72.75
64628;BME280;59036;50.960;0.314;2022-08-03T06:06:47;99824.78;;;16.04;73.94
64628;BME280;59036;50.960;0.314;2022-08-03T06:09:14;99823.12;;;16.44;73.05
64628;BME280;59036;50.960;0.314;2022-08-03T06:11:41;99822.37;;;16.15;73.44
64628;BME280;59036;50.960;0.314;2022-08-03T06:14:09;99823.11;;;15.53;75.43
64628;BME280;59036;50.960;0.314;2022-08-03T06:16:36;99823.37;;;16.36;73.45
64628;BME280;59036;50.960;0.314;2022-08-03T06:19:03;99831.32;;;15.91;74.67
64628;BME280;59036;50.960;0.314;2022-08-03T06:21:30;99833.77;;;16.04;74.44
64628;BME280;59036;50.960;0.314;2022-08-03T06:23:57;99830.63;;;16.85;71.41
64628;BME280;59036;50.960;0.314;2022-08-03T06:26:26;99834.03;;;17.47;71.11
64628;BME280;59036;50.960;0.314;2022-08-03T06:28:54;99830.94;;;16.58;71.90
64628;BME280;59036;50.960;0.314;2022-08-03T06:31:23;99831.83;;;17.03;70.84
64628;BME280;59036;50.960;0.314;2022-08-03T06:33:50;99831.92;;;17.24;70.32
64628;BME280;59036;50.960;0.314;2022-08-03T06:36:17;99837.00;;;17.42;71.33
64628;BME280;59036;50.960;0.314;2022-08-03T06:38:44;99842.93;;;15.75;76.03
64628;BME280;59036;50.960;0.314;2022-08-03T06:41:11;99838.64;;;17.20;72.09
64628;BME280;59036;50.960;0.314;2022-08-03T06:43:38;99836.87;;;16.38;73.46
64628;BME280;59036;50.960;0.314;2022-08-03T06:46:04;99833.12;;;17.20;70.85
64628;BME280;59036;50.960;0.314;2022-08-03T06:48:32;99829.00;;;16.88;72.08
64628;BME280;59036;50.960;0.314;2022-08-03T06:50:59;99833.58;;;16.66;73.34
64628;BME280;59036;50.960;0.314;2022-08-03T06:53:26;99834.61;;;16.91;72.51
64628;BME280;59036;50.960;0.314;2022-08-03T06:55:53;99836.13;;;16.58;73.95
64628;BME280;59036;50.960;0.314;2022-08-03T06:58:20;99838.48;;;17.06;71.85
64628;BME280;59036;50.960;0.314;2022-08-03T07:00:47;99834.73;;;17.76;69.65
64628;BME280;59036;50.960;0.314;2022-08-03T07:03:14;99833.32;;;17.60;70.28
64628;BME280;59036;50.960;0.314;2022-08-03T07:05:41;99829.96;;;17.81;69.17
64628;BME280;59036;50.960;0.314;2022-08-03T07:08:08;99826.30;;;17.78;70.60
64628;BME280;59036;50.960;0.314;2022-08-03T07:10:35;99825.49;;;17.44;70.94
64628;BME280;59036;50.960;0.314;2022-08-03T07:13:02;99833.59;;;17.03;72.29
64628;BME280;59036;50.960;0.314;2022-08-03T07:15:30;99830.95;;;17.24;71.99
64628;BME280;59036;50.960;0.314;2022-08-03T07:17:57;99833.63;;;17.00;73.79
64628;BME280;59036;50.960;0.314;2022-08-03T07:20:24;99833.90;;;16.71;74.08
64628;BME280;59036;50.960;0.314;2022-08-03T07:22:51;99831.80;;;16.63;74.29
64628;BME280;59036;50.960;0.314;2022-08-03T07:25:18;99838.88;;;16.42;75.50
64628;BME280;59036;50.960;0.314;2022-08-03T07:27:47;99837.76;;;16.72;74.94
64628;BME280;59036;50.960;0.314;2022-08-03T07:30:15;99832.81;;;17.24;72.28
64628;BME280;59036;50.960;0.314;2022-08-03T07:32:42;99834.19;;;17.03;73.80
64628;BME280;59036;50.960;0.314;2022-08-03T07:35:10;99834.44;;;17.55;71.43
64628;BME280;59036;50.960;0.314;2022-08-03T07:37:37;99842.99;;;17.01;72.13
64628;BME280;59036;50.960;0.314;2022-08-03T07:40:05;99851.97;;;16.69;74.55
64628;BME280;59036;50.960;0.314;2022-08-03T07:42:33;99847.36;;;16.88;73.77
64628;BME280;59036;50.960;0.314;2022-08-03T07:45:00;99846.87;;;16.50;74.14
64628;BME280;59036;50.960;0.314;2022-08-03T07:47:29;99845.74;;;17.05;73.35
64628;BME280;59036;50.960;0.314;2022-08-03T07:49:57;99846.70;;;17.54;71.91
64628;BME280;59036;50.960;0.314;2022-08-03T07:52:24;99845.96;;;17.74;71.21
64628;BME280;59036;50.960;0.314;2022-08-03T07:54:51;99849.91;;;17.83;71.05
64628;BME280;59036;50.960;0.314;2022-08-03T07:57:18;99852.10;;;17.70;70.52
64628;BME280;59036;50.960;0.314;2022-08-03T07:59:45;99855.43;;;17.85;69.76
64628;BME280;59036;50.960;0.314;2022-08-03T08:02:13;99854.50;;;17.70;71.20
64628;BME280;59036;50.960;0.314;2022-08-03T08:04:40;99850.79;;;17.32;72.14
64628;BME280;59036;50.960;0.314;2022-08-03T08:07:08;99849.21;;;17.31;73.44
64628;BME280;59036;50.960;0.314;2022-08-03T08:09:36;99850.32;;;17.57;70.79
64628;BME280;59036;50.960;0.314;2022-08-03T08:12:03;99854.69;;;17.63;70.12
64628;BME280;59036;50.960;0.314;2022-08-03T08:14:30;99851.86;;;17.58;71.46
64628;BME280;59036;50.960;0.314;2022-08-03T08:16:57;99852.30;;;17.58;71.09
64628;BME280;59036;50.960;0.314;2022-08-03T08:19:24;99857.87;;;18.14;69.85
64628;BME280;59036;50.960;0.314;2022-08-03T08:21:51;99856.02;;;18.27;69.35
64628;BME280;59036;50.960;0.314;2022-08-03T08:24:18;99858.11;;;17.75;72.49
64628;BME280;59036;50.960;0.314;2022-08-03T08:26:46;99859.20;;;18.03;71.29
64628;BME280;59036;50.960;0.314;2022-08-03T08:29:13;99861.07;;;17.27;72.46
64628;BME280;59036;50.960;0.314;2022-08-03T08:31:40;99860.49;;;17.34;72.70
64628;BME280;59036;50.960;0.314;2022-08-03T08:34:07;99855.77;;;17.06;74.37
64628;BME280;59036;50.960;0.314;2022-08-03T08:36:35;99862.30;;;16.82;75.42
64628;BME280;59036;50.960;0.314;2022-08-03T08:39:02;99862.72;;;17.32;74.51
64628;BME280;59036;50.960;0.314;2022-08-03T08:41:29;99865.87;;;17.59;72.59
64628;BME280;59036;50.960;0.314;2022-08-03T08:43:56;99874.03;;;17.26;73.03
64628;BME280;59036;50.960;0.314;2022-08-03T08:46:24;99870.70;;;17.35;72.89
64628;BME280;59036;50.960;0.314;2022-08-03T08:48:52;99869.75;;;17.46;71.57
64628;BME280;59036;50.960;0.314;2022-08-03T08:51:21;99869.75;;;17.57;72.04
64628;BME280;59036;50.960;0.314;2022-08-03T08:53:53;99867.51;;;17.56;71.88
64628;BME280;59036;50.960;0.314;2022-08-03T08:56:26;99873.43;;;18.32;70.24
64628;BME280;59036;50.960;0.314;2022-08-03T08:58:57;99875.52;;;17.79;71.23
64628;BME280;59036;50.960;0.314;2022-08-03T09:01:25;99875.15;;;17.20;73.09
64628;BME280;59036;50.960;0.314;2022-08-03T09:03:53;99870.71;;;17.09;73.11
64628;BME280;59036;50.960;0.314;2022-08-03T09:06:20;99868.63;;;17.23;73.49
64628;BME280;59036;50.960;0.314;2022-08-03T09:08:48;99864.98;;;17.19;73.94
64628;BME280;59036;50.960;0.314;2022-08-03T09:11:20;99865.55;;;17.49;72.14
64628;BME280;59036;50.960;0.314;2022-08-03T09:13:47;99863.88;;;17.50;72.03
64628;BME280;59036;50.960;0.314;2022-08-03T09:16:16;99860.12;;;17.36;73.10
64628;BME280;59036;50.960;0.314;2022-08-03T09:18:45;99854.10;;;17.60;71.99
64628;BME280;59036;50.960;0.314;2022-08-03T09:21:16;99856.69;;;17.61;72.32
64628;BME280;59036;50.960;0.314;2022-08-03T09:23:45;99851.63;;;17.31;73.15
64628;BME280;59036;50.960;0.314;2022-08-03T09:26:20;99862.37;;;17.25;74.07
64628;BME280;59036;50.960;0.314;2022-08-03T09:28:54;99858.78;;;17.12;74.24
64628;BME280;59036;50.960;0.314;2022-08-03T09:31:30;99855.90;;;17.42;72.98
64628;BME280;59036;50.960;0.314;2022-08-03T09:34:01;99852.47;;;17.21;73.85
64628;BME280;59036;50.960;0.314;2022-08-03T09:36:38;99848.02;;;17.51;71.71
64628;BME280;59036;50.960;0.314;2022-08-03T09:39:07;99851.24;;;18.04;70.85
64628;BME280;59036;50.960;0.314;2022-08-03T09:41:34;99852.78;;;17.74;71.10
64628;BME280;59036;50.960;0.314;2022-08-03T09:44:01;99850.80;;;18.06;70.04
64628;BME280;59036;50.960;0.314;2022-08-03T09:46:28;99844.97;;;18.67;69.23
64628;BME280;59036;50.960;0.314;2022-08-03T09:49:08;99848.03;;;18.62;68.42
64628;BME280;59036;50.960;0.314;2022-08-03T09:51:35;99852.59;;;18.80;69.52
64628;BME280;59036;50.960;0.314;2022-08-03T09:54:02;99850.71;;;18.08;70.38
64628;BME280;59036;50.960;0.314;2022-08-03T09:56:39;99849.96;;;18.68;68.69
64628;BME280;59036;50.960;0.314;2022-08-03T09:59:08;99850.60;;;19.44;67.06
64628;BME280;59036;50.960;0.314;2022-08-03T10:01:36;99855.03;;;19.96;65.32
64628;BME280;59036;50.960;0.314;2022-08-03T10:04:03;99856.98;;;19.12;65.41
64628;BME280;59036;50.960;0.314;2022-08-03T10:06:30;99852.50;;;18.62;66.61
64628;BME280;59036;50.960;0.314;2022-08-03T10:09:06;99844.29;;;19.01;67.40
64628;BME280;59036;50.960;0.314;2022-08-03T10:11:34;99853.88;;;19.17;66.81
64628;BME280;59036;50.960;0.314;2022-08-03T10:14:03;99853.22;;;19.70;65.26
64628;BME280;59036;50.960;0.314;2022-08-03T10:16:34;99850.38;;;19.16;66.21
64628;BME280;59036;50.960;0.314;2022-08-03T10:19:02;99850.40;;;19.85;64.52
64628;BME280;59036;50.960;0.314;2022-08-03T10:21:32;99854.15;;;19.03;66.97
64628;BME280;59036;50.960;0.314;2022-08-03T10:24:03;99856.29;;;18.37;68.37
64628;BME280;59036;50.960;0.314;2022-08-03T10:26:32;99854.93;;;19.77;65.91
64628;BME280;59036;50.960;0.314;2022-08-03T10:29:03;99857.88;;;19.65;66.01
64628;BME280;59036;50.960;0.314;2022-08-03T10:31:34;99860.08;;;19.05;67.67
64628;BME280;59036;50.960;0.314;2022-08-03T10:34:08;99862.66;;;19.20;67.01
64628;BME280;59036;50.960;0.314;2022-08-03T10:36:38;99861.07;;;19.29;66.34
64628;BME280;59036;50.960;0.314;2022-08-03T10:39:07;99859.89;;;19.28;65.94
64628;BME280;59036;50.960;0.314;2022-08-03T10:41:40;99857.05;;;19.00;67.13
64628;BME280;59036;50.960;0.314;2022-08-03T10:44:12;99857.68;;;18.82;67.07
64628;BME280;59036;50.960;0.314;2022-08-03T10:46:41;99855.89;;;18.70;67.40
64628;BME280;59036;50.960;0.314;2022-08-03T10:49:12;99850.94;;;19.30;66.34
64628;BME280;59036;50.960;0.314;2022-08-03T10:51:40;99845.36;;;18.67;68.40
64628;BME280;59036;50.960;0.314;2022-08-03T10:54:37;99848.83;;;18.76;67.54
64628;BME280;59036;50.960;0.314;2022-08-03T10:57:05;99839.98;;;19.12;67.14
64628;BME280;59036;50.960;0.314;2022-08-03T11:00:06;99840.02;;;19.76;65.34
64628;BME280;59036;50.960;0.314;2022-08-03T11:03:08;99834.17;;;20.58;62.72
64628;BME280;59036;50.960;0.314;2022-08-03T11:05:38;99835.21;;;20.58;61.44
64628;BME280;59036;50.960;0.314;2022-08-03T11:08:37;99831.80;;;20.42;62.30
64628;BME280;59036;50.960;0.314;2022-08-03T11:11:24;99832.73;;;20.07;63.67
64628;BME280;59036;50.960;0.314;2022-08-03T11:13:57;99830.09;;;20.14;63.09
64628;BME280;59036;50.960;0.314;2022-08-03T11:16:26;99826.17;;;20.73;62.48
64628;BME280;59036;50.960;0.314;2022-08-03T11:18:56;99830.08;;;20.68;61.15
64628;BME280;59036;50.960;0.314;2022-08-03T11:21:51;99831.35;;;20.69;62.15
64628;BME280;59036;50.960;0.314;2022-08-03T11:25:23;99831.13;;;20.39;62.40
64628;BME280;59036;50.960;0.314;2022-08-03T11:28:24;99832.06;;;20.52;62.68
64628;BME280;59036;50.960;0.314;2022-08-03T11:30:51;99819.48;;;21.54;60.60
64628;BME280;59036;50.960;0.314;2022-08-03T11:33:28;99817.30;;;20.97;60.64
64628;BME280;59036;50.960;0.314;2022-08-03T11:35:58;99819.06;;;20.54;61.58
64628;BME280;59036;50.960;0.314;2022-08-03T11:38:26;99820.25;;;20.82;61.45
64628;BME280;59036;50.960;0.314;2022-08-03T11:40:54;99820.80;;;21.00;61.10
64628;BME280;59036;50.960;0.314;2022-08-03T11:43:53;99830.32;;;20.13;62.23
64628;BME280;59036;50.960;0.314;2022-08-03T11:46:20;99819.59;;;21.03;60.61
64628;BME280;59036;50.960;0.314;2022-08-03T11:48:49;99813.69;;;20.96;60.43
64628;BME280;59036;50.960;0.314;2022-08-03T11:51:21;99823.54;;;21.42;60.02
64628;BME280;59036;50.960;0.314;2022-08-03T11:53:53;99828.43;;;20.77;61.69
64628;BME280;59036;50.960;0.314;2022-08-03T11:56:21;99824.57;;;20.75;62.28
64628;BME280;59036;50.960;0.314;2022-08-03T11:58:49;99830.01;;;21.08;61.51
64628;BME280;59036;50.960;0.314;2022-08-03T12:01:19;99827.90;;;20.77;61.50
64628;BME280;59036;50.960;0.314;2022-08-03T12:03:47;99831.88;;;20.73;60.71
64628;BME280;59036;50.960;0.314;2022-08-03T12:06:16;99826.43;;;20.75;61.30
64628;BME280;59036;50.960;0.314;2022-08-03T12:08:44;99832.04;;;21.04;61.37
64628;BME280;59036;50.960;0.314;2022-08-03T12:11:14;99828.41;;;21.12;61.16
64628;BME280;59036;50.960;0.314;2022-08-03T12:13:43;99827.64;;;21.29;59.95
64628;BME280;59036;50.960;0.314;2022-08-03T12:16:16;99828.73;;;21.51;58.68
64628;BME280;59036;50.960;0.314;2022-08-03T12:18:44;99830.13;;;21.80;59.21
64628;BME280;59036;50.960;0.314;2022-08-03T12:21:11;99825.99;;;21.29;59.64
64628;BME280;59036;50.960;0.314;2022-08-03T12:23:38;99829.02;;;20.87;60.45
64628;BME280;59036;50.960;0.314;2022-08-03T12:26:07;99824.47;;;20.92;61.39
64628;BME280;59036;50.960;0.314;2022-08-03T12:28:35;99819.78;;;21.76;59.03
64628;BME280;59036;50.960;0.314;2022-08-03T12:31:04;99819.95;;;20.36;61.38
64628;BME280;59036;50.960;0.314;2022-08-03T12:33:52;99811.88;;;21.53;60.25
64628;BME280;59036;50.960;0.314;2022-08-03T12:36:20;99817.96;;;21.64;59.12
64628;BME280;59036;50.960;0.314;2022-08-03T12:38:54;99813.32;;;21.39;59.40
64628;BME280;59036;50.960;0.314;2022-08-03T12:41:28;99816.41;;;21.76;58.59
64628;BME280;59036;50.960;0.314;2022-08-03T12:43:55;99810.55;;;22.23;57.40
64628;BME280;59036;50.960;0.314;2022-08-03T12:46:29;99814.44;;;22.38;57.09
64628;BME280;59036;50.960;0.314;2022-08-03T12:48:59;99814.25;;;22.65;56.43
64628;BME280;59036;50.960;0.314;2022-08-03T12:51:27;99820.79;;;22.39;57.30
64628;BME280;59036;50.960;0.314;2022-08-03T12:53:56;99807.74;;;22.02;58.34
64628;BME280;59036;50.960;0.314;2022-08-03T12:56:24;99811.12;;;22.63;56.92
64628;BME280;59036;50.960;0.314;2022-08-03T12:58:51;99807.08;;;22.34;56.93
64628;BME280;59036;50.960;0.314;2022-08-03T13:01:19;99810.75;;;21.79;57.99
64628;BME280;59036;50.960;0.314;2022-08-03T13:03:47;99799.96;;;22.75;56.97
64628;BME280;59036;50.960;0.314;2022-08-03T13:06:16;99803.53;;;22.71;56.24
64628;BME280;59036;50.960;0.314;2022-08-03T13:08:43;99808.05;;;23.11;55.94
64628;BME280;59036;50.960;0.314;2022-08-03T13:11:20;99792.48;;;23.20;54.74
64628;BME280;59036;50.960;0.314;2022-08-03T13:13:48;99800.32;;;22.28;56.78